createdAt,value
2022-09-15T00:00:23.430Z,94682.78
2022-09-15T00:02:51.587Z,94669.13
2022-09-15T00:05:19.435Z,94670.97
2022-09-15T00:07:47.720Z,94663.25
2022-09-15T00:10:15.336Z,94652.25
2022-09-15T00:12:44.798Z,94645.88
2022-09-15T00:15:14.614Z,94654.16
2022-09-15T00:17:43.058Z,94656.03
2022-09-15T00:20:11.666Z,94664.63
2022-09-15T00:22:40.290Z,94669.13
2022-09-15T00:25:08.069Z,94661.41
2022-09-15T00:27:36.418Z,94644.78
2022-09-15T00:30:06.792Z,94649.09
2022-09-15T00:32:35.295Z,94644.25
2022-09-15T00:35:03.118Z,94636.16
2022-09-15T00:37:30.927Z,94636.41
2022-09-15T00:39:58.565Z,94635.59
2022-09-15T00:42:26.918Z,94638.91
2022-09-15T00:44:57.241Z,94645.59
2022-09-15T00:47:30.238Z,94635.41
2022-09-15T00:50:02.953Z,94632.28
2022-09-15T00:52:37.326Z,94634.63
2022-09-15T00:55:08.224Z,94629.69
2022-09-15T00:57:42.481Z,94632.28
2022-09-15T01:00:13.778Z,94639.81
2022-09-15T01:02:45.639Z,94637.09
2022-09-15T01:05:16.568Z,94636.63
2022-09-15T01:07:48.903Z,94643.31
2022-09-15T01:10:20.205Z,94637.16
2022-09-15T01:12:48.418Z,94648.31
2022-09-15T01:15:16.546Z,94646.47
2022-09-15T01:17:58.921Z,94639.91
2022-09-15T01:21:09.454Z,94639.81
2022-09-15T01:24:09.002Z,94648.91
2022-09-15T01:27:09.786Z,94645.38
2022-09-15T01:30:06.707Z,94634.41
2022-09-15T01:33:07.209Z,94641.25
2022-09-15T01:35:48.692Z,94639.44
2022-09-15T01:38:24.982Z,94635.41
2022-09-15T01:40:58.101Z,94633.91
2022-09-15T01:43:29.718Z,94631.16
2022-09-15T01:46:00.996Z,94627.94
2022-09-15T01:48:31.062Z,94629.09
2022-09-15T01:51:02.218Z,94626.16
2022-09-15T01:53:31.073Z,94623.66
2022-09-15T01:56:05.075Z,94619.47
2022-09-15T01:58:34.025Z,94618.88
2022-09-15T02:01:06.993Z,94613.66
2022-09-15T02:03:44.999Z,94616.34
2022-09-15T02:06:20.258Z,94621.84
2022-09-15T02:08:52.968Z,94624.38
2022-09-15T02:11:26.553Z,94622.69
2022-09-15T02:14:01.022Z,94626.16
2022-09-15T02:16:34.789Z,94631.50
2022-09-15T02:19:31.511Z,94635.13
2022-09-15T02:22:08.167Z,94635.72
2022-09-15T02:24:40.960Z,94626.31
2022-09-15T02:27:15.586Z,94620.44
2022-09-15T02:29:46.112Z,94626.00
2022-09-15T02:32:18.254Z,94615.88
2022-09-15T02:34:51.402Z,94627.03
2022-09-15T02:37:21.183Z,94620.41
2022-09-15T02:39:57.951Z,94620.66
2022-09-15T02:42:26.973Z,94617.09
2022-09-15T02:44:54.757Z,94613.09
2022-09-15T02:47:25.135Z,94619.97
2022-09-15T02:49:53.884Z,94615.91
2022-09-15T02:52:22.561Z,94619.63
2022-09-15T02:54:50.489Z,94623.50
2022-09-15T02:57:18.782Z,94617.88
2022-09-15T03:00:04.620Z,94633.19
2022-09-15T03:02:34.288Z,94630.59
2022-09-15T03:05:01.862Z,94628.91
2022-09-15T03:07:30.565Z,94635.19
2022-09-15T03:09:58.300Z,94632.81
2022-09-15T03:12:26.459Z,94635.41
2022-09-15T03:14:54.048Z,94640.13
2022-09-15T03:17:21.648Z,94634.34
2022-09-15T03:19:50.936Z,94628.31
2022-09-15T03:22:18.801Z,94626.22
2022-09-15T03:24:46.388Z,94628.78
2022-09-15T03:27:14.138Z,94618.75
2022-09-15T03:29:41.764Z,94616.28
2022-09-15T03:32:09.346Z,94621.69
2022-09-15T03:34:36.934Z,94610.34
2022-09-15T03:37:07.190Z,94606.00
2022-09-15T03:39:34.831Z,94606.81
2022-09-15T03:42:03.230Z,94620.63
2022-09-15T03:44:30.851Z,94619.63
2022-09-15T03:46:59.086Z,94612.47
2022-09-15T03:49:26.714Z,94619.25
2022-09-15T03:51:54.815Z,94618.25
2022-09-15T03:54:23.719Z,94613.28
2022-09-15T03:56:52.047Z,94620.50
2022-09-15T03:59:21.312Z,94618.03
2022-09-15T04:01:50.476Z,94611.22
2022-09-15T04:04:18.571Z,94605.59
2022-09-15T04:06:46.324Z,94602.88
2022-09-15T04:09:13.976Z,94599.22
2022-09-15T04:11:43.579Z,94602.16
2022-09-15T04:14:11.832Z,94607.44
2022-09-15T04:16:39.836Z,94600.69
2022-09-15T04:19:07.472Z,94601.56
2022-09-15T04:21:35.872Z,94598.56
2022-09-15T04:24:04.725Z,94593.22
2022-09-15T04:26:34.954Z,94589.19
2022-09-15T04:29:06.043Z,94584.38
2022-09-15T04:31:34.702Z,94591.53
2022-09-15T04:34:02.384Z,94594.28
2022-09-15T04:36:31.658Z,94601.19
2022-09-15T04:38:59.904Z,94596.88
2022-09-15T04:41:28.371Z,94594.63
2022-09-15T04:43:56.612Z,94598.75
2022-09-15T04:46:25.646Z,94592.13
2022-09-15T04:48:54.033Z,94594.59
2022-09-15T04:51:23.017Z,94601.50
2022-09-15T04:53:51.683Z,94614.03
2022-09-15T04:56:20.944Z,94611.16
2022-09-15T04:58:51.735Z,94610.22
2022-09-15T05:01:21.860Z,94616.97
2022-09-15T05:03:51.555Z,94614.09
2022-09-15T05:06:22.641Z,94608.34
2022-09-15T05:08:51.706Z,94615.44
2022-09-15T05:11:20.723Z,94609.28
2022-09-15T05:13:49.206Z,94616.78
2022-09-15T05:16:19.649Z,94612.38
2022-09-15T05:18:49.311Z,94611.44
2022-09-15T05:21:21.130Z,94612.50
2022-09-15T05:23:49.207Z,94613.03
2022-09-15T05:26:18.692Z,94613.03
2022-09-15T05:28:46.297Z,94612.63
2022-09-15T05:31:21.438Z,94606.34
2022-09-15T05:33:50.568Z,94615.91
2022-09-15T05:36:21.202Z,94618.03
2022-09-15T05:38:48.844Z,94621.19
2022-09-15T05:41:18.624Z,94620.66
2022-09-15T05:43:47.625Z,94614.44
2022-09-15T05:46:16.462Z,94615.75
2022-09-15T05:49:08.684Z,94630.09
2022-09-15T05:51:37.872Z,94621.97
2022-09-15T05:54:05.896Z,94619.81
2022-09-15T05:56:34.326Z,94627.78
2022-09-15T05:59:01.944Z,94622.50
2022-09-15T06:01:31.197Z,94624.16
2022-09-15T06:03:59.141Z,94628.47
2022-09-15T06:06:28.059Z,94623.06
2022-09-15T06:08:59.310Z,94623.03
2022-09-15T06:11:29.879Z,94631.63
2022-09-15T06:14:00.050Z,94632.59
2022-09-15T06:16:28.134Z,94632.59
2022-09-15T06:18:55.767Z,94624.53
2022-09-15T06:21:25.639Z,94627.97
2022-09-15T06:23:54.795Z,94633.47
2022-09-15T06:26:25.120Z,94632.56
2022-09-15T06:28:54.752Z,94628.38
2022-09-15T06:31:23.959Z,94633.91
2022-09-15T06:33:53.382Z,94630.66
2022-09-15T06:36:22.887Z,94625.69
2022-09-15T06:38:51.646Z,94629.06
2022-09-15T06:41:20.533Z,94633.91
2022-09-15T06:43:50.044Z,94634.78
2022-09-15T06:46:20.031Z,94638.28
2022-09-15T06:48:48.821Z,94643.47
2022-09-15T06:51:18.173Z,94644.25
2022-09-15T06:53:47.005Z,94647.53
2022-09-15T06:56:16.083Z,94646.66
2022-09-15T06:58:45.371Z,94646.06
2022-09-15T07:01:15.778Z,94648.66
2022-09-15T07:03:45.118Z,94655.13
2022-09-15T07:06:13.084Z,94658.34
2022-09-15T07:08:41.944Z,94652.53
2022-09-15T07:11:10.764Z,94655.13
2022-09-15T07:13:39.687Z,94665.50
2022-09-15T07:16:09.601Z,94660.78
2022-09-15T07:18:43.192Z,94664.47
2022-09-15T07:21:14.044Z,94668.16
2022-09-15T07:23:42.340Z,94674.06
2022-09-15T07:26:12.391Z,94666.06
2022-09-15T07:28:42.360Z,94670.09
2022-09-15T07:31:12.278Z,94669.91
2022-09-15T07:33:42.256Z,94675.88
2022-09-15T07:36:11.274Z,94666.66
2022-09-15T07:38:41.931Z,94671.00
2022-09-15T07:41:12.004Z,94677.97
2022-09-15T07:43:40.678Z,94675.81
2022-09-15T07:46:08.365Z,94671.13
2022-09-15T07:48:36.740Z,94671.59
2022-09-15T07:51:05.992Z,94677.50
2022-09-15T07:53:34.074Z,94674.94
2022-09-15T07:56:01.675Z,94681.16
2022-09-15T07:58:30.231Z,94677.16
2022-09-15T08:01:02.725Z,94684.13
2022-09-15T08:03:30.707Z,94684.09
2022-09-15T08:05:59.887Z,94688.97
2022-09-15T08:08:29.497Z,94685.72
2022-09-15T08:10:58.372Z,94675.25
2022-09-15T08:13:26.373Z,94676.56
2022-09-15T08:15:54.409Z,94674.44
2022-09-15T08:18:22.107Z,94672.31
2022-09-15T08:20:49.702Z,94672.34
2022-09-15T08:23:18.035Z,94667.25
2022-09-15T08:25:47.649Z,94663.75
2022-09-15T08:28:15.234Z,94666.94
2022-09-15T08:30:43.135Z,94676.63
2022-09-15T08:33:11.371Z,94668.84
2022-09-15T08:35:39.368Z,94684.09
2022-09-15T08:38:06.978Z,94677.13
2022-09-15T08:40:38.073Z,94689.34
2022-09-15T08:43:14.955Z,94671.09
2022-09-15T08:45:48.675Z,94673.91
2022-09-15T08:48:21.217Z,94676.84
2022-09-15T08:50:52.261Z,94682.94
2022-09-15T08:53:24.506Z,94683.19
2022-09-15T08:55:55.494Z,94692.22
2022-09-15T08:58:26.392Z,94686.84
2022-09-15T09:01:04.545Z,94685.53
2022-09-15T09:03:45.194Z,94681.56
2022-09-15T09:06:25.804Z,94678.59
2022-09-15T09:09:04.293Z,94679.50
2022-09-15T09:11:49.867Z,94676.72
2022-09-15T09:14:27.853Z,94675.69
2022-09-15T09:17:10.745Z,94667.97
2022-09-15T09:19:56.338Z,94668.97
2022-09-15T09:22:27.651Z,94684.34
2022-09-15T09:24:58.824Z,94684.63
2022-09-15T09:27:30.146Z,94683.00
2022-09-15T09:30:03.917Z,94673.59
2022-09-15T09:32:40.253Z,94667.84
2022-09-15T09:35:21.513Z,94673.28
2022-09-15T09:37:52.149Z,94672.44
2022-09-15T09:40:21.022Z,94674.84
2022-09-15T09:42:49.973Z,94678.94
2022-09-15T09:45:20.568Z,94673.81
2022-09-15T09:47:48.453Z,94688.97
2022-09-15T09:50:38.675Z,94679.56
2022-09-15T09:53:28.821Z,94681.41
2022-09-15T09:56:16.236Z,94685.47
2022-09-15T09:58:44.525Z,94681.28
2022-09-15T10:01:16.062Z,94683.25
2022-09-15T10:03:45.190Z,94686.50
2022-09-15T10:06:15.595Z,94691.38
2022-09-15T10:08:55.344Z,94671.78
2022-09-15T10:11:24.058Z,94680.13
2022-09-15T10:13:53.945Z,94679.03
2022-09-15T10:16:24.189Z,94674.72
2022-09-15T10:18:54.545Z,94672.84
2022-09-15T10:21:25.227Z,94676.59
2022-09-15T10:23:52.983Z,94674.44
2022-09-15T10:26:24.211Z,94673.38
2022-09-15T10:29:15.738Z,94675.56
2022-09-15T10:31:46.040Z,94674.47
2022-09-15T10:34:26.918Z,94669.66
2022-09-15T10:37:03.292Z,94678.50
2022-09-15T10:39:39.417Z,94682.41
2022-09-15T10:42:18.276Z,94678.13
2022-09-15T10:44:56.135Z,94683.53
2022-09-15T10:47:38.065Z,94674.69
2022-09-15T10:50:15.240Z,94678.41
2022-09-15T10:52:57.857Z,94674.59
2022-09-15T10:55:51.762Z,94678.13
2022-09-15T10:58:39.931Z,94672.38
2022-09-15T11:01:33.234Z,94667.19
2022-09-15T11:04:32.500Z,94652.81
2022-09-15T11:07:08.549Z,94660.16
2022-09-15T11:09:43.041Z,94653.75
2022-09-15T11:12:29.396Z,94657.69
2022-09-15T11:15:17.066Z,94656.50
2022-09-15T11:17:59.832Z,94654.22
2022-09-15T11:20:44.950Z,94663.94
2022-09-15T11:23:19.163Z,94653.19
2022-09-15T11:25:52.118Z,94659.06
2022-09-15T11:28:24.687Z,94659.28
2022-09-15T11:30:57.096Z,94660.63
2022-09-15T11:33:32.330Z,94657.19
2022-09-15T11:36:07.740Z,94664.75
2022-09-15T11:38:43.371Z,94677.72
2022-09-15T11:41:20.351Z,94681.97
2022-09-15T11:44:06.116Z,94687.88
2022-09-15T11:46:57.815Z,94679.53
2022-09-15T11:49:30.975Z,94677.13
2022-09-15T11:52:08.067Z,94679.28
2022-09-15T11:54:40.748Z,94668.56
2022-09-15T11:57:19.669Z,94663.78
2022-09-15T11:59:52.948Z,94660.00
2022-09-15T12:02:27.304Z,94663.72
2022-09-15T12:05:07.153Z,94673.63
2022-09-15T12:07:42.551Z,94657.19
2022-09-15T12:10:16.216Z,94665.00
2022-09-15T12:12:45.671Z,94662.00
2022-09-15T12:15:19.475Z,94662.41
2022-09-15T12:17:53.219Z,94664.84
2022-09-15T12:20:29.720Z,94662.13
2022-09-15T12:23:06.065Z,94658.38
2022-09-15T12:25:41.066Z,94667.50
2022-09-15T12:28:38.453Z,94656.81
2022-09-15T12:31:26.871Z,94656.00
2022-09-15T12:33:56.160Z,94650.56
2022-09-15T12:36:45.670Z,94657.78
2022-09-15T12:39:28.853Z,94641.09
2022-09-15T12:42:06.744Z,94635.09
2022-09-15T12:44:37.872Z,94636.97
2022-09-15T12:47:17.749Z,94627.44
2022-09-15T12:49:48.638Z,94636.41
2022-09-15T12:52:17.917Z,94637.25
2022-09-15T12:54:54.015Z,94633.94
2022-09-15T12:57:27.266Z,94638.28
2022-09-15T13:00:34.734Z,94638.00
2022-09-15T13:03:04.238Z,94638.22
2022-09-15T13:06:16.480Z,94629.22
2022-09-15T13:08:47.399Z,94635.31
2022-09-15T13:11:21.803Z,94643.88
2022-09-15T13:13:53.970Z,94640.97
2022-09-15T13:16:28.268Z,94636.13
2022-09-15T13:19:07.082Z,94633.44
2022-09-15T13:21:39.463Z,94633.09
2022-09-15T13:24:15.554Z,94647.66
2022-09-15T13:26:48.657Z,94654.03
2022-09-15T13:29:17.890Z,94644.41
2022-09-15T13:31:54.650Z,94640.16
2022-09-15T13:35:08.626Z,94660.50
2022-09-15T13:38:12.171Z,94652.78
2022-09-15T13:41:13.669Z,94663.69
2022-09-15T13:44:06.683Z,94651.28
2022-09-15T13:46:48.107Z,94657.22
2022-09-15T13:49:39.651Z,94656.41
2022-09-15T13:52:22.971Z,94657.88
2022-09-15T13:55:11.163Z,94652.47
2022-09-15T14:00:34.153Z,94648.22
2022-09-15T14:03:06.734Z,94664.56
2022-09-15T14:05:36.375Z,94695.34
2022-09-15T14:08:07.411Z,94704.66
2022-09-15T14:10:42.936Z,94691.00
2022-09-15T14:13:15.064Z,94694.31
2022-09-15T14:15:57.662Z,94692.94
2022-09-15T14:18:25.932Z,94685.78
2022-09-15T14:21:01.916Z,94700.34
2022-09-15T14:23:30.544Z,94684.28
2022-09-15T14:26:01.086Z,94686.69
2022-09-15T14:28:32.209Z,94686.59
2022-09-15T14:31:02.592Z,94700.94
2022-09-15T14:33:38.145Z,94691.72
2022-09-15T14:36:14.588Z,94695.63
2022-09-15T14:38:42.655Z,94696.72
2022-09-15T14:41:19.826Z,94701.19
2022-09-15T14:43:47.522Z,94697.44
2022-09-15T14:46:19.013Z,94696.38
2022-09-15T14:48:46.682Z,94708.72
2022-09-15T14:51:20.014Z,94715.31
2022-09-15T14:53:50.732Z,94717.88
2022-09-15T14:56:21.723Z,94749.19
2022-09-15T14:58:53.537Z,94735.94
2022-09-15T15:01:27.724Z,94744.38
2022-09-15T15:04:00.681Z,94744.28
2022-09-15T15:06:35.134Z,94746.28
2022-09-15T15:09:08.172Z,94739.97
2022-09-15T15:11:36.470Z,94745.84
2022-09-15T15:14:08.171Z,94738.84
2022-09-15T15:16:37.365Z,94752.75
2022-09-15T15:19:05.327Z,94749.03
2022-09-15T15:21:41.603Z,94743.19
2022-09-15T15:24:17.757Z,94752.53
2022-09-15T15:26:46.690Z,94749.94
2022-09-15T15:29:42.941Z,94756.00
2022-09-15T15:32:17.344Z,94760.66
2022-09-15T15:34:52.882Z,94769.09
2022-09-15T15:37:26.452Z,94768.38
2022-09-15T15:39:56.499Z,94771.19
2022-09-15T15:42:25.056Z,94782.34
2022-09-15T15:45:22.311Z,94782.50
2022-09-15T15:47:51.459Z,94796.91
2022-09-15T15:50:21.740Z,94807.81
2022-09-15T15:52:50.463Z,94805.03
2022-09-15T15:55:20.075Z,94804.25
2022-09-15T15:57:51.087Z,94819.69
2022-09-15T16:00:22.292Z,94826.63
2022-09-15T16:02:52.731Z,94826.84
2022-09-15T16:05:22.114Z,94834.16
2022-09-15T16:07:52.504Z,94833.97
2022-09-15T16:10:23.755Z,94843.66
2022-09-15T16:12:52.036Z,94845.84
2022-09-15T16:15:22.217Z,94865.31
2022-09-15T16:17:50.263Z,94858.19
2022-09-15T16:20:20.529Z,94865.91
2022-09-15T16:22:48.324Z,94866.16
2022-09-15T16:25:19.713Z,94879.44
2022-09-15T16:27:47.334Z,94885.66
2022-09-15T16:30:15.466Z,94888.19
2022-09-15T16:32:43.092Z,94888.78
2022-09-15T16:35:27.950Z,94881.81
2022-09-15T16:37:55.930Z,94884.03
2022-09-15T16:40:23.657Z,94899.06
2022-09-15T16:42:51.617Z,94901.06
2022-09-15T16:45:28.805Z,94907.19
2022-09-15T16:47:56.564Z,94904.91
2022-09-15T16:50:26.102Z,94912.16
2022-09-15T16:52:53.821Z,94903.47
2022-09-15T16:55:26.172Z,94907.09
2022-09-15T16:57:53.884Z,94909.03
2022-09-15T17:00:21.842Z,94917.72
2022-09-15T17:02:49.561Z,94913.19
2022-09-15T17:05:21.254Z,94916.91
2022-09-15T17:07:50.190Z,94913.31
2022-09-15T17:10:18.012Z,94904.19
2022-09-15T17:12:45.649Z,94912.72
2022-09-15T17:15:23.671Z,94913.56
2022-09-15T17:17:51.572Z,94914.47
2022-09-15T17:20:19.886Z,94915.03
2022-09-15T17:22:48.802Z,94912.50
2022-09-15T17:25:26.760Z,94907.66
2022-09-15T17:27:54.662Z,94909.72
2022-09-15T17:30:25.152Z,94909.94
2022-09-15T17:32:53.146Z,94917.34
2022-09-15T17:35:24.463Z,94913.41
2022-09-15T17:37:52.833Z,94915.25
2022-09-15T17:40:22.479Z,94921.63
2022-09-15T17:42:50.144Z,94926.19
2022-09-15T17:45:22.124Z,94932.16
2022-09-15T17:47:50.288Z,94930.75
2022-09-15T17:50:19.178Z,94922.91
2022-09-15T17:52:47.477Z,94932.94
2022-09-15T17:55:19.081Z,94938.03
2022-09-15T17:57:49.144Z,94930.53
2022-09-15T18:00:18.863Z,94926.47
2022-09-15T18:02:50.129Z,94930.09
2022-09-15T18:05:20.656Z,94925.78
2022-09-15T18:07:48.331Z,94939.91
2022-09-15T18:10:17.738Z,94936.09
2022-09-15T18:12:48.379Z,94948.38
2022-09-15T18:15:22.317Z,94943.97
2022-09-15T18:17:50.444Z,94941.19
2022-09-15T18:20:21.839Z,94943.69
2022-09-15T18:22:50.510Z,94951.13
2022-09-15T18:25:21.458Z,94960.03
2022-09-15T18:27:49.309Z,94954.00
2022-09-15T18:30:17.936Z,94959.53
2022-09-15T18:32:47.963Z,94963.78
2022-09-15T18:35:18.853Z,94965.19
2022-09-15T18:37:47.016Z,94965.19
2022-09-15T18:40:16.847Z,94966.50
2022-09-15T18:42:45.170Z,94977.94
2022-09-15T18:45:14.947Z,94980.28
2022-09-15T18:47:43.204Z,94981.69
2022-09-15T18:50:14.163Z,94983.41
2022-09-15T18:52:42.344Z,94988.22
2022-09-15T18:55:13.552Z,94988.09
2022-09-15T18:57:41.595Z,94985.44
2022-09-15T19:00:13.026Z,94996.09
2022-09-15T19:02:40.838Z,94994.56
2022-09-15T19:05:11.410Z,95000.22
2022-09-15T19:07:40.379Z,95004.63
2022-09-15T19:10:08.611Z,95002.63
2022-09-15T19:12:36.830Z,95004.25
2022-09-15T19:15:10.597Z,95006.47
2022-09-15T19:17:39.615Z,95001.47
2022-09-15T19:20:09.712Z,95008.41
2022-09-15T19:22:37.916Z,95005.19
2022-09-15T19:25:08.615Z,95005.53
2022-09-15T19:27:36.750Z,95004.72
2022-09-15T19:30:05.052Z,95008.75
2022-09-15T19:32:33.822Z,95015.25
2022-09-15T19:35:02.444Z,95012.03
2022-09-15T19:37:30.055Z,95009.28
2022-09-15T19:39:58.043Z,95012.75
2022-09-15T19:42:27.019Z,95012.94
2022-09-15T19:44:55.050Z,95016.53
2022-09-15T19:47:22.676Z,95012.50
2022-09-15T19:49:52.115Z,95017.00
2022-09-15T19:52:19.882Z,95021.16
2022-09-15T19:54:48.310Z,95008.44
2022-09-15T19:57:15.937Z,95013.88
2022-09-15T19:59:45.655Z,95019.53
2022-09-15T20:02:13.520Z,95017.69
2022-09-15T20:04:41.488Z,95021.63
2022-09-15T20:07:09.455Z,95028.59
2022-09-15T20:09:37.306Z,95023.63
2022-09-15T20:12:05.887Z,95023.38
2022-09-15T20:14:33.497Z,95028.22
2022-09-15T20:17:03.212Z,95029.03
2022-09-15T20:19:31.097Z,95038.38
2022-09-15T20:21:58.715Z,95035.16
2022-09-15T20:24:26.312Z,95032.63
2022-09-15T20:26:54.484Z,95030.66
2022-09-15T20:29:23.708Z,95032.28
2022-09-15T20:31:52.284Z,95037.97
2022-09-15T20:34:21.239Z,95031.84
2022-09-15T20:36:49.336Z,95040.25
2022-09-15T20:39:19.377Z,95046.50
2022-09-15T20:41:46.990Z,95041.00
2022-09-15T20:44:15.357Z,95040.47
2022-09-15T20:46:44.422Z,95041.19
2022-09-15T20:49:12.475Z,95048.69
2022-09-15T20:51:42.253Z,95047.56
2022-09-15T20:54:11.296Z,95042.09
2022-09-15T20:56:39.796Z,95051.69
2022-09-15T20:59:10.255Z,95045.56
2022-09-15T21:01:40.188Z,95030.66
2022-09-15T21:04:09.418Z,95032.50
2022-09-15T21:06:37.983Z,95035.53
2022-09-15T21:09:07.883Z,95044.09
2022-09-15T21:11:36.427Z,95055.06
2022-09-15T21:14:04.725Z,95060.47
2022-09-15T21:16:33.781Z,95055.03
2022-09-15T21:19:01.889Z,95050.97
2022-09-15T21:21:32.110Z,95047.06
2022-09-15T21:24:03.520Z,95050.97
2022-09-15T21:26:34.764Z,95050.41
2022-09-15T21:29:02.901Z,95054.91
2022-09-15T21:31:33.360Z,95044.28
2022-09-15T21:34:01.353Z,95050.88
2022-09-15T21:36:30.990Z,95047.88
2022-09-15T21:38:59.999Z,95059.56
2022-09-15T21:41:29.679Z,95053.69
2022-09-15T21:44:00.607Z,95054.22
2022-09-15T21:46:30.909Z,95047.31
2022-09-15T21:48:59.968Z,95052.63
2022-09-15T21:51:29.396Z,95055.28
2022-09-15T21:53:58.582Z,95059.56
2022-09-15T21:56:28.351Z,95048.91
2022-09-15T21:58:56.149Z,95055.84
2022-09-15T22:01:26.789Z,95060.69
2022-09-15T22:03:56.456Z,95041.97
2022-09-15T22:06:27.587Z,95046.03
2022-09-15T22:08:55.785Z,95046.50
2022-09-15T22:11:24.383Z,95051.44
2022-09-15T22:13:52.045Z,95049.00
2022-09-15T22:16:22.422Z,95054.56
2022-09-15T22:18:52.407Z,95053.97
2022-09-15T22:21:22.826Z,95062.06
2022-09-15T22:23:52.212Z,95058.03
2022-09-15T22:26:22.022Z,95060.44
2022-09-15T22:28:49.983Z,95049.81
2022-09-15T22:31:19.839Z,95048.78
2022-09-15T22:33:47.826Z,95052.25
2022-09-15T22:36:19.353Z,95054.66
2022-09-15T22:38:47.688Z,95057.34
2022-09-15T22:41:17.806Z,95060.44
2022-09-15T22:43:48.958Z,95046.13
2022-09-15T22:46:18.261Z,95046.59
2022-09-15T22:48:45.992Z,95052.94
2022-09-15T22:51:14.602Z,95047.97
2022-09-15T22:53:43.721Z,95043.94
2022-09-15T22:56:15.115Z,95035.94
2022-09-15T22:58:44.624Z,95047.03
2022-09-15T23:01:14.406Z,95033.88
2022-09-15T23:03:42.354Z,95037.69
2022-09-15T23:06:11.096Z,95033.19
2022-09-15T23:08:38.727Z,95027.50
2022-09-15T23:11:10.165Z,95035.03
2022-09-15T23:13:38.470Z,95033.41
2022-09-15T23:16:07.751Z,95024.38
2022-09-15T23:18:35.935Z,95023.94
2022-09-15T23:21:07.580Z,95027.28
2022-09-15T23:23:36.236Z,95027.50
2022-09-15T23:26:06.690Z,95024.75
2022-09-15T23:28:35.688Z,95031.28
2022-09-15T23:31:03.604Z,95030.00
2022-09-15T23:33:32.171Z,95023.63
2022-09-15T23:35:59.939Z,95022.47
2022-09-15T23:38:28.239Z,95020.41
2022-09-15T23:40:55.847Z,95022.56
2022-09-15T23:43:24.230Z,95018.25
2022-09-15T23:45:53.564Z,95015.00
2022-09-15T23:48:22.863Z,95019.47
2022-09-15T23:50:50.675Z,95006.28
2022-09-15T23:53:18.518Z,95011.81
2022-09-15T23:55:46.708Z,95012.91
2022-09-15T23:58:14.994Z,95014.19
